sensor_id;sensor_type;location;lat;lon;timestamp;temperature;humidity
37560;DHT22;23398;50.928;7.084;2023-08-31T00:02:06;15.70;97.60
37560;DHT22;23398;50.928;7.084;2023-08-31T00:04:32;15.80;97.60
37560;DHT22;23398;50.928;7.084;2023-08-31T00:06:57;15.80;97.50
37560;DHT22;23398;50.928;7.084;2023-08-31T00:09:24;15.80;97.30
37560;DHT22;23398;50.928;7.084;2023-08-31T00:11:50;15.90;97.20
37560;DHT22;23398;50.928;7.084;2023-08-31T00:14:16;16.00;97.00
37560;DHT22;23398;50.928;7.084;2023-08-31T00:16:41;15.90;96.80
37560;DHT22;23398;50.928;7.084;2023-08-31T00:19:07;16.00;96.80
37560;DHT22;23398;50.928;7.084;2023-08-31T00:21:33;15.90;96.70
37560;DHT22;23398;50.928;7.084;2023-08-31T00:23:58;15.90;96.60
37560;DHT22;23398;50.928;7.084;2023-08-31T00:26:25;16.00;96.60
37560;DHT22;23398;50.928;7.084;2023-08-31T00:28:50;15.90;96.50
37560;DHT22;23398;50.928;7.084;2023-08-31T00:31:16;16.00;96.50
37560;DHT22;23398;50.928;7.084;2023-08-31T00:33:41;16.00;96.50
37560;DHT22;23398;50.928;7.084;2023-08-31T00:36:08;16.00;96.40
37560;DHT22;23398;50.928;7.084;2023-08-31T00:38:34;16.00;96.30
37560;DHT22;23398;50.928;7.084;2023-08-31T00:41:00;16.00;96.20
37560;DHT22;23398;50.928;7.084;2023-08-31T00:43:25;16.00;96.10
37560;DHT22;23398;50.928;7.084;2023-08-31T00:45:54;15.90;95.90
37560;DHT22;23398;50.928;7.084;2023-08-31T00:48:23;15.90;96.00
37560;DHT22;23398;50.928;7.084;2023-08-31T00:50:49;15.90;96.00
37560;DHT22;23398;50.928;7.084;2023-08-31T00:53:17;15.90;96.10
37560;DHT22;23398;50.928;7.084;2023-08-31T00:55:46;15.90;96.30
37560;DHT22;23398;50.928;7.084;2023-08-31T00:58:12;15.90;95.80
37560;DHT22;23398;50.928;7.084;2023-08-31T01:03:58;15.80;95.70
37560;DHT22;23398;50.928;7.084;2023-08-31T01:09:09;15.70;95.50
37560;DHT22;23398;50.928;7.084;2023-08-31T01:12:03;15.70;95.30
37560;DHT22;23398;50.928;7.084;2023-08-31T01:14:38;15.70;95.40
37560;DHT22;23398;50.928;7.084;2023-08-31T01:17:07;15.60;95.10
37560;DHT22;23398;50.928;7.084;2023-08-31T01:19:50;15.60;95.20
37560;DHT22;23398;50.928;7.084;2023-08-31T01:22:30;15.50;95.80
37560;DHT22;23398;50.928;7.084;2023-08-31T01:24:58;15.50;95.90
37560;DHT22;23398;50.928;7.084;2023-08-31T01:27:32;15.60;96.00
37560;DHT22;23398;50.928;7.084;2023-08-31T01:29:58;15.60;96.20
37560;DHT22;23398;50.928;7.084;2023-08-31T01:32:24;15.50;96.40
37560;DHT22;23398;50.928;7.084;2023-08-31T01:34:51;15.60;96.60
37560;DHT22;23398;50.928;7.084;2023-08-31T01:40:19;15.60;96.60
37560;DHT22;23398;50.928;7.084;2023-08-31T01:42:46;15.60;96.40
37560;DHT22;23398;50.928;7.084;2023-08-31T01:45:15;15.60;95.90
37560;DHT22;23398;50.928;7.084;2023-08-31T01:47:42;15.60;95.60
37560;DHT22;23398;50.928;7.084;2023-08-31T01:50:08;15.60;95.10
37560;DHT22;23398;50.928;7.084;2023-08-31T01:52:34;15.50;94.80
37560;DHT22;23398;50.928;7.084;2023-08-31T01:54:59;15.50;94.60
37560;DHT22;23398;50.928;7.084;2023-08-31T01:57:25;15.50;94.30
37560;DHT22;23398;50.928;7.084;2023-08-31T01:59:51;15.40;94.00
37560;DHT22;23398;50.928;7.084;2023-08-31T02:02:16;15.30;93.70
37560;DHT22;23398;50.928;7.084;2023-08-31T02:04:43;15.30;93.40
37560;DHT22;23398;50.928;7.084;2023-08-31T02:07:09;15.20;93.10
37560;DHT22;23398;50.928;7.084;2023-08-31T02:09:34;15.10;92.90
37560;DHT22;23398;50.928;7.084;2023-08-31T02:12:00;15.00;92.70
37560;DHT22;23398;50.928;7.084;2023-08-31T02:14:25;14.90;92.50
37560;DHT22;23398;50.928;7.084;2023-08-31T02:16:51;14.80;92.70
37560;DHT22;23398;50.928;7.084;2023-08-31T02:19:17;14.80;93.20
37560;DHT22;23398;50.928;7.084;2023-08-31T02:21:42;14.70;93.60
37560;DHT22;23398;50.928;7.084;2023-08-31T02:24:08;14.60;93.90
37560;DHT22;23398;50.928;7.084;2023-08-31T02:26:35;14.50;94.40
37560;DHT22;23398;50.928;7.084;2023-08-31T02:29:02;14.50;94.90
37560;DHT22;23398;50.928;7.084;2023-08-31T02:31:28;14.40;95.00
37560;DHT22;23398;50.928;7.084;2023-08-31T02:33:53;14.40;95.30
37560;DHT22;23398;50.928;7.084;2023-08-31T02:36:19;14.30;95.40
37560;DHT22;23398;50.928;7.084;2023-08-31T02:38:46;14.30;95.20
37560;DHT22;23398;50.928;7.084;2023-08-31T02:41:12;14.20;95.20
37560;DHT22;23398;50.928;7.084;2023-08-31T02:43:38;14.20;95.30
37560;DHT22;23398;50.928;7.084;2023-08-31T02:46:04;14.10;95.40
37560;DHT22;23398;50.928;7.084;2023-08-31T02:48:32;14.10;95.40
37560;DHT22;23398;50.928;7.084;2023-08-31T02:50:58;14.10;95.30
37560;DHT22;23398;50.928;7.084;2023-08-31T02:53:30;14.10;95.20
37560;DHT22;23398;50.928;7.084;2023-08-31T02:55:56;14.10;95.50
37560;DHT22;23398;50.928;7.084;2023-08-31T02:58:22;14.00;95.40
37560;DHT22;23398;50.928;7.084;2023-08-31T03:00:48;13.90;95.50
37560;DHT22;23398;50.928;7.084;2023-08-31T03:03:17;13.90;95.80
37560;DHT22;23398;50.928;7.084;2023-08-31T03:05:43;13.90;96.30
37560;DHT22;23398;50.928;7.084;2023-08-31T03:08:09;13.90;96.50
37560;DHT22;23398;50.928;7.084;2023-08-31T03:10:35;13.90;96.70
37560;DHT22;23398;50.928;7.084;2023-08-31T03:13:01;13.90;96.70
37560;DHT22;23398;50.928;7.084;2023-08-31T03:15:27;14.00;96.80
37560;DHT22;23398;50.928;7.084;2023-08-31T03:17:52;14.00;96.70
37560;DHT22;23398;50.928;7.084;2023-08-31T03:20:18;14.00;96.80
37560;DHT22;23398;50.928;7.084;2023-08-31T03:22:44;14.00;96.70
37560;DHT22;23398;50.928;7.084;2023-08-31T03:25:09;14.00;96.70
37560;DHT22;23398;50.928;7.084;2023-08-31T03:27:35;14.00;96.50
37560;DHT22;23398;50.928;7.084;2023-08-31T03:30:01;14.00;96.40
37560;DHT22;23398;50.928;7.084;2023-08-31T03:32:27;14.00;96.40
37560;DHT22;23398;50.928;7.084;2023-08-31T03:34:52;14.00;96.50
37560;DHT22;23398;50.928;7.084;2023-08-31T03:37:18;14.00;96.70
37560;DHT22;23398;50.928;7.084;2023-08-31T03:39:47;14.00;96.80
37560;DHT22;23398;50.928;7.084;2023-08-31T03:42:13;14.10;97.40
37560;DHT22;23398;50.928;7.084;2023-08-31T03:44:38;14.10;97.20
37560;DHT22;23398;50.928;7.084;2023-08-31T03:47:04;14.10;97.50
37560;DHT22;23398;50.928;7.084;2023-08-31T03:49:30;14.20;97.70
37560;DHT22;23398;50.928;7.084;2023-08-31T03:51:57;14.20;97.90
37560;DHT22;23398;50.928;7.084;2023-08-31T03:54:23;14.30;98.10
37560;DHT22;23398;50.928;7.084;2023-08-31T03:56:49;14.40;98.30
37560;DHT22;23398;50.928;7.084;2023-08-31T03:59:14;14.50;98.50
37560;DHT22;23398;50.928;7.084;2023-08-31T04:01:40;14.60;98.50
37560;DHT22;23398;50.928;7.084;2023-08-31T04:04:05;14.60;98.50
37560;DHT22;23398;50.928;7.084;2023-08-31T04:06:31;14.70;98.60
37560;DHT22;23398;50.928;7.084;2023-08-31T04:08:57;14.80;98.70
37560;DHT22;23398;50.928;7.084;2023-08-31T04:11:22;14.90;98.70
37560;DHT22;23398;50.928;7.084;2023-08-31T04:13:48;14.90;98.70
37560;DHT22;23398;50.928;7.084;2023-08-31T04:16:14;15.00;98.70
37560;DHT22;23398;50.928;7.084;2023-08-31T04:18:39;15.10;98.60
37560;DHT22;23398;50.928;7.084;2023-08-31T04:21:06;15.20;98.50
37560;DHT22;23398;50.928;7.084;2023-08-31T04:23:31;15.20;98.50
37560;DHT22;23398;50.928;7.084;2023-08-31T04:25:57;15.30;98.40
37560;DHT22;23398;50.928;7.084;2023-08-31T04:28:23;15.40;98.40
37560;DHT22;23398;50.928;7.084;2023-08-31T04:30:49;15.40;98.30
37560;DHT22;23398;50.928;7.084;2023-08-31T04:33:15;15.50;98.30
37560;DHT22;23398;50.928;7.084;2023-08-31T04:35:41;15.60;98.30
37560;DHT22;23398;50.928;7.084;2023-08-31T04:38:07;15.60;98.10
37560;DHT22;23398;50.928;7.084;2023-08-31T04:40:33;15.70;98.00
37560;DHT22;23398;50.928;7.084;2023-08-31T04:42:58;15.70;97.90
37560;DHT22;23398;50.928;7.084;2023-08-31T04:45:24;15.80;97.90
37560;DHT22;23398;50.928;7.084;2023-08-31T04:47:49;15.80;97.80
37560;DHT22;23398;50.928;7.084;2023-08-31T04:50:16;15.90;97.80
37560;DHT22;23398;50.928;7.084;2023-08-31T04:52:42;15.90;97.90
37560;DHT22;23398;50.928;7.084;2023-08-31T04:55:08;16.00;97.90
37560;DHT22;23398;50.928;7.084;2023-08-31T04:57:34;16.00;97.80
37560;DHT22;23398;50.928;7.084;2023-08-31T05:00:00;16.10;97.80
37560;DHT22;23398;50.928;7.084;2023-08-31T05:02:25;16.10;97.80
37560;DHT22;23398;50.928;7.084;2023-08-31T05:04:52;16.20;97.70
37560;DHT22;23398;50.928;7.084;2023-08-31T05:07:18;16.30;97.60
37560;DHT22;23398;50.928;7.084;2023-08-31T05:09:44;16.30;97.60
37560;DHT22;23398;50.928;7.084;2023-08-31T05:12:09;16.30;97.70
37560;DHT22;23398;50.928;7.084;2023-08-31T05:14:35;16.40;97.70
37560;DHT22;23398;50.928;7.084;2023-08-31T05:17:03;16.50;97.40
37560;DHT22;23398;50.928;7.084;2023-08-31T05:19:30;16.50;97.20
37560;DHT22;23398;50.928;7.084;2023-08-31T05:21:56;16.60;96.90
37560;DHT22;23398;50.928;7.084;2023-08-31T05:24:21;16.60;96.60
37560;DHT22;23398;50.928;7.084;2023-08-31T05:26:47;16.70;96.30
37560;DHT22;23398;50.928;7.084;2023-08-31T05:29:12;16.70;96.10
37560;DHT22;23398;50.928;7.084;2023-08-31T05:31:38;16.80;95.90
37560;DHT22;23398;50.928;7.084;2023-08-31T05:34:03;16.80;95.60
37560;DHT22;23398;50.928;7.084;2023-08-31T05:36:29;16.80;95.30
37560;DHT22;23398;50.928;7.084;2023-08-31T05:38:54;16.80;94.90
37560;DHT22;23398;50.928;7.084;2023-08-31T05:41:20;16.80;94.90
37560;DHT22;23398;50.928;7.084;2023-08-31T05:43:46;16.80;94.40
37560;DHT22;23398;50.928;7.084;2023-08-31T05:46:12;16.80;94.10
37560;DHT22;23398;50.928;7.084;2023-08-31T05:48:37;16.80;93.80
37560;DHT22;23398;50.928;7.084;2023-08-31T05:51:03;16.80;93.70
37560;DHT22;23398;50.928;7.084;2023-08-31T05:53:32;16.80;93.50
37560;DHT22;23398;50.928;7.084;2023-08-31T05:55:58;16.70;93.60
37560;DHT22;23398;50.928;7.084;2023-08-31T05:58:31;16.70;93.60
37560;DHT22;23398;50.928;7.084;2023-08-31T06:00:58;16.70;93.50
37560;DHT22;23398;50.928;7.084;2023-08-31T06:03:23;16.70;93.30
37560;DHT22;23398;50.928;7.084;2023-08-31T06:05:49;16.70;93.20
37560;DHT22;23398;50.928;7.084;2023-08-31T06:08:15;16.70;93.10
37560;DHT22;23398;50.928;7.084;2023-08-31T06:10:41;16.60;93.30
37560;DHT22;23398;50.928;7.084;2023-08-31T06:13:06;16.70;93.50
37560;DHT22;23398;50.928;7.084;2023-08-31T06:15:32;16.70;93.60
37560;DHT22;23398;50.928;7.084;2023-08-31T06:17:58;16.70;93.50
37560;DHT22;23398;50.928;7.084;2023-08-31T06:20:23;16.70;93.70
37560;DHT22;23398;50.928;7.084;2023-08-31T06:22:49;16.70;93.90
37560;DHT22;23398;50.928;7.084;2023-08-31T06:25:15;16.70;94.00
37560;DHT22;23398;50.928;7.084;2023-08-31T06:27:42;16.80;93.80
37560;DHT22;23398;50.928;7.084;2023-08-31T06:30:09;16.80;93.50
37560;DHT22;23398;50.928;7.084;2023-08-31T06:32:37;16.90;93.60
37560;DHT22;23398;50.928;7.084;2023-08-31T06:35:03;16.90;93.70
37560;DHT22;23398;50.928;7.084;2023-08-31T06:37:29;17.00;93.90
37560;DHT22;23398;50.928;7.084;2023-08-31T06:39:54;17.10;93.80
37560;DHT22;23398;50.928;7.084;2023-08-31T06:42:20;17.10;93.60
37560;DHT22;23398;50.928;7.084;2023-08-31T06:44:45;17.20;93.50
37560;DHT22;23398;50.928;7.084;2023-08-31T06:47:11;17.30;93.50
37560;DHT22;23398;50.928;7.084;2023-08-31T06:49:39;17.40;93.60
37560;DHT22;23398;50.928;7.084;2023-08-31T06:52:04;17.50;93.60
37560;DHT22;23398;50.928;7.084;2023-08-31T06:54:33;17.50;93.50
37560;DHT22;23398;50.928;7.084;2023-08-31T06:56:58;17.70;94.00
37560;DHT22;23398;50.928;7.084;2023-08-31T06:59:24;17.90;95.70
37560;DHT22;23398;50.928;7.084;2023-08-31T07:01:50;18.30;96.90
37560;DHT22;23398;50.928;7.084;2023-08-31T07:04:15;18.90;97.50
37560;DHT22;23398;50.928;7.084;2023-08-31T07:06:41;19.70;97.50
37560;DHT22;23398;50.928;7.084;2023-08-31T07:09:07;20.60;97.50
37560;DHT22;23398;50.928;7.084;2023-08-31T07:11:33;21.70;95.60
37560;DHT22;23398;50.928;7.084;2023-08-31T07:13:59;22.80;92.00
37560;DHT22;23398;50.928;7.084;2023-08-31T07:16:25;23.90;88.40
37560;DHT22;23398;50.928;7.084;2023-08-31T07:18:51;25.10;82.70
37560;DHT22;23398;50.928;7.084;2023-08-31T07:21:17;26.20;78.00
37560;DHT22;23398;50.928;7.084;2023-08-31T07:23:42;27.30;74.20
37560;DHT22;23398;50.928;7.084;2023-08-31T07:26:08;28.30;69.70
37560;DHT22;23398;50.928;7.084;2023-08-31T07:28:34;29.30;65.90
37560;DHT22;23398;50.928;7.084;2023-08-31T07:31:06;30.20;62.60
37560;DHT22;23398;50.928;7.084;2023-08-31T07:33:32;31.20;60.30
37560;DHT22;23398;50.928;7.084;2023-08-31T07:35:59;32.00;56.90
37560;DHT22;23398;50.928;7.084;2023-08-31T07:38:26;32.70;55.00
37560;DHT22;23398;50.928;7.084;2023-08-31T07:40:52;33.30;53.70
37560;DHT22;23398;50.928;7.084;2023-08-31T07:43:18;33.90;52.00
37560;DHT22;23398;50.928;7.084;2023-08-31T07:45:44;34.40;50.60
37560;DHT22;23398;50.928;7.084;2023-08-31T07:48:10;34.90;49.30
37560;DHT22;23398;50.928;7.084;2023-08-31T07:50:35;35.50;49.40
37560;DHT22;23398;50.928;7.084;2023-08-31T07:53:01;36.10;48.30
37560;DHT22;23398;50.928;7.084;2023-08-31T07:55:26;36.70;47.70
37560;DHT22;23398;50.928;7.084;2023-08-31T07:57:52;37.30;46.30
37560;DHT22;23398;50.928;7.084;2023-08-31T08:00:18;37.80;45.20
37560;DHT22;23398;50.928;7.084;2023-08-31T08:02:47;38.40;44.00
37560;DHT22;23398;50.928;7.084;2023-08-31T08:05:12;38.90;43.20
37560;DHT22;23398;50.928;7.084;2023-08-31T08:07:38;39.40;41.50
37560;DHT22;23398;50.928;7.084;2023-08-31T08:10:04;39.80;39.60
37560;DHT22;23398;50.928;7.084;2023-08-31T08:12:42;40.00;38.00
37560;DHT22;23398;50.928;7.084;2023-08-31T08:15:10;39.80;38.20
37560;DHT22;23398;50.928;7.084;2023-08-31T08:17:36;39.50;37.20
37560;DHT22;23398;50.928;7.084;2023-08-31T08:20:02;39.10;37.80
37560;DHT22;23398;50.928;7.084;2023-08-31T08:22:28;38.60;37.60
37560;DHT22;23398;50.928;7.084;2023-08-31T08:24:54;38.00;37.10
37560;DHT22;23398;50.928;7.084;2023-08-31T08:27:20;37.50;37.40
37560;DHT22;23398;50.928;7.084;2023-08-31T08:29:46;36.90;38.40
37560;DHT22;23398;50.928;7.084;2023-08-31T08:32:12;36.40;38.80
37560;DHT22;23398;50.928;7.084;2023-08-31T08:34:37;35.90;39.80
37560;DHT22;23398;50.928;7.084;2023-08-31T08:37:03;35.60;40.50
37560;DHT22;23398;50.928;7.084;2023-08-31T08:39:29;35.40;40.20
37560;DHT22;23398;50.928;7.084;2023-08-31T08:41:58;35.50;40.70
37560;DHT22;23398;50.928;7.084;2023-08-31T08:44:25;35.30;40.70
37560;DHT22;23398;50.928;7.084;2023-08-31T08:46:52;35.40;41.00
37560;DHT22;23398;50.928;7.084;2023-08-31T08:49:19;35.50;41.50
37560;DHT22;23398;50.928;7.084;2023-08-31T08:51:45;35.80;41.60
37560;DHT22;23398;50.928;7.084;2023-08-31T08:54:13;36.30;41.90
37560;DHT22;23398;50.928;7.084;2023-08-31T08:56:39;36.90;41.30
37560;DHT22;23398;50.928;7.084;2023-08-31T08:59:05;37.60;40.30
37560;DHT22;23398;50.928;7.084;2023-08-31T09:01:35;38.20;39.60
37560;DHT22;23398;50.928;7.084;2023-08-31T09:04:00;38.90;38.90
37560;DHT22;23398;50.928;7.084;2023-08-31T09:06:27;39.60;37.70
37560;DHT22;23398;50.928;7.084;2023-08-31T09:08:56;40.20;37.20
37560;DHT22;23398;50.928;7.084;2023-08-31T09:11:23;40.80;36.10
37560;DHT22;23398;50.928;7.084;2023-08-31T09:13:49;41.30;34.00
37560;DHT22;23398;50.928;7.084;2023-08-31T09:16:29;41.70;32.80
37560;DHT22;23398;50.928;7.084;2023-08-31T09:18:55;41.70;33.10
37560;DHT22;23398;50.928;7.084;2023-08-31T09:21:21;41.60;31.90
37560;DHT22;23398;50.928;7.084;2023-08-31T09:23:57;41.20;32.00
37560;DHT22;23398;50.928;7.084;2023-08-31T09:26:23;40.90;32.80
37560;DHT22;23398;50.928;7.084;2023-08-31T09:28:49;40.60;32.80
37560;DHT22;23398;50.928;7.084;2023-08-31T09:31:14;40.40;33.30
37560;DHT22;23398;50.928;7.084;2023-08-31T09:33:52;40.20;33.10
37560;DHT22;23398;50.928;7.084;2023-08-31T09:36:19;40.20;33.90
37560;DHT22;23398;50.928;7.084;2023-08-31T09:38:45;40.30;33.80
37560;DHT22;23398;50.928;7.084;2023-08-31T09:41:11;40.50;33.50
37560;DHT22;23398;50.928;7.084;2023-08-31T09:43:37;40.80;32.50
37560;DHT22;23398;50.928;7.084;2023-08-31T09:46:04;41.10;32.80
37560;DHT22;23398;50.928;7.084;2023-08-31T09:48:30;41.40;32.10
37560;DHT22;23398;50.928;7.084;2023-08-31T09:50:56;41.70;31.60
37560;DHT22;23398;50.928;7.084;2023-08-31T09:53:24;42.00;31.00
37560;DHT22;23398;50.928;7.084;2023-08-31T09:55:51;42.30;30.70
37560;DHT22;23398;50.928;7.084;2023-08-31T09:58:21;42.70;30.30
37560;DHT22;23398;50.928;7.084;2023-08-31T10:00:49;43.00;30.00
37560;DHT22;23398;50.928;7.084;2023-08-31T10:03:14;43.40;29.10
37560;DHT22;23398;50.928;7.084;2023-08-31T10:05:43;43.70;28.70
37560;DHT22;23398;50.928;7.084;2023-08-31T10:08:09;43.80;28.30
37560;DHT22;23398;50.928;7.084;2023-08-31T10:10:34;43.80;28.30
37560;DHT22;23398;50.928;7.084;2023-08-31T10:13:01;43.60;27.90
37560;DHT22;23398;50.928;7.084;2023-08-31T10:15:31;43.40;28.70
37560;DHT22;23398;50.928;7.084;2023-08-31T10:17:59;43.10;28.40
37560;DHT22;23398;50.928;7.084;2023-08-31T10:20:26;42.70;28.00
37560;DHT22;23398;50.928;7.084;2023-08-31T10:22:54;42.30;28.20
37560;DHT22;23398;50.928;7.084;2023-08-31T10:25:21;41.90;28.70
37560;DHT22;23398;50.928;7.084;2023-08-31T10:27:47;41.30;28.60
37560;DHT22;23398;50.928;7.084;2023-08-31T10:35:51;39.40;30.30
37560;DHT22;23398;50.928;7.084;2023-08-31T10:38:26;38.80;30.90
37560;DHT22;23398;50.928;7.084;2023-08-31T10:43:56;38.00;31.10
37560;DHT22;23398;50.928;7.084;2023-08-31T10:46:34;37.60;30.90
37560;DHT22;23398;50.928;7.084;2023-08-31T10:51:36;36.70;32.10
37560;DHT22;23398;50.928;7.084;2023-08-31T10:54:09;36.20;31.90
37560;DHT22;23398;50.928;7.084;2023-08-31T10:59:50;35.00;33.60
37560;DHT22;23398;50.928;7.084;2023-08-31T11:02:46;34.30;34.10
37560;DHT22;23398;50.928;7.084;2023-08-31T11:05:16;33.80;34.30
37560;DHT22;23398;50.928;7.084;2023-08-31T11:07:47;33.30;34.80
37560;DHT22;23398;50.928;7.084;2023-08-31T11:10:15;32.70;34.80
37560;DHT22;23398;50.928;7.084;2023-08-31T11:12:59;32.30;35.80
37560;DHT22;23398;50.928;7.084;2023-08-31T11:15:26;31.90;36.60
37560;DHT22;23398;50.928;7.084;2023-08-31T11:17:54;31.60;36.70
37560;DHT22;23398;50.928;7.084;2023-08-31T11:20:21;31.20;37.30
37560;DHT22;23398;50.928;7.084;2023-08-31T11:22:49;31.00;37.50
37560;DHT22;23398;50.928;7.084;2023-08-31T11:25:16;30.80;38.50
37560;DHT22;23398;50.928;7.084;2023-08-31T11:27:42;30.60;39.10
37560;DHT22;23398;50.928;7.084;2023-08-31T11:30:18;30.40;40.20
37560;DHT22;23398;50.928;7.084;2023-08-31T11:32:46;30.20;40.10
37560;DHT22;23398;50.928;7.084;2023-08-31T11:35:11;30.10;41.20
37560;DHT22;23398;50.928;7.084;2023-08-31T11:37:37;29.90;40.50
37560;DHT22;23398;50.928;7.084;2023-08-31T11:40:03;29.80;40.50
37560;DHT22;23398;50.928;7.084;2023-08-31T11:42:30;29.70;40.30
37560;DHT22;23398;50.928;7.084;2023-08-31T11:44:57;29.60;40.30
37560;DHT22;23398;50.928;7.084;2023-08-31T11:47:23;29.40;40.80
37560;DHT22;23398;50.928;7.084;2023-08-31T11:49:50;29.30;40.80
37560;DHT22;23398;50.928;7.084;2023-08-31T11:52:17;29.10;40.60
37560;DHT22;23398;50.928;7.084;2023-08-31T11:54:43;28.90;41.10
37560;DHT22;23398;50.928;7.084;2023-08-31T11:57:09;28.70;41.10
37560;DHT22;23398;50.928;7.084;2023-08-31T11:59:36;28.50;41.80
37560;DHT22;23398;50.928;7.084;2023-08-31T12:02:06;28.20;42.00
37560;DHT22;23398;50.928;7.084;2023-08-31T12:04:32;28.00;42.70
37560;DHT22;23398;50.928;7.084;2023-08-31T12:07:02;27.80;43.10
37560;DHT22;23398;50.928;7.084;2023-08-31T12:09:32;27.60;43.60
37560;DHT22;23398;50.928;7.084;2023-08-31T12:11:58;27.40;44.10
37560;DHT22;23398;50.928;7.084;2023-08-31T12:14:25;27.30;44.50
37560;DHT22;23398;50.928;7.084;2023-08-31T12:16:52;27.10;44.60
37560;DHT22;23398;50.928;7.084;2023-08-31T12:19:18;27.10;44.70
37560;DHT22;23398;50.928;7.084;2023-08-31T12:21:45;27.10;44.10
37560;DHT22;23398;50.928;7.084;2023-08-31T12:24:12;27.20;45.50
37560;DHT22;23398;50.928;7.084;2023-08-31T12:26:38;27.10;45.80
37560;DHT22;23398;50.928;7.084;2023-08-31T12:29:04;27.20;46.80
37560;DHT22;23398;50.928;7.084;2023-08-31T12:31:32;27.30;46.00
37560;DHT22;23398;50.928;7.084;2023-08-31T12:33:59;27.40;46.00
37560;DHT22;23398;50.928;7.084;2023-08-31T12:36:25;27.50;45.80
37560;DHT22;23398;50.928;7.084;2023-08-31T12:38:51;27.60;45.00
37560;DHT22;23398;50.928;7.084;2023-08-31T12:41:17;27.60;45.20
37560;DHT22;23398;50.928;7.084;2023-08-31T12:43:43;27.60;45.10
37560;DHT22;23398;50.928;7.084;2023-08-31T12:46:08;27.70;45.10
37560;DHT22;23398;50.928;7.084;2023-08-31T12:48:35;27.70;45.50
37560;DHT22;23398;50.928;7.084;2023-08-31T12:51:01;27.80;46.00
37560;DHT22;23398;50.928;7.084;2023-08-31T12:53:26;28.00;46.20
37560;DHT22;23398;50.928;7.084;2023-08-31T12:55:53;27.90;45.80
37560;DHT22;23398;50.928;7.084;2023-08-31T12:58:19;27.90;46.00
37560;DHT22;23398;50.928;7.084;2023-08-31T13:00:46;28.00;46.50
37560;DHT22;23398;50.928;7.084;2023-08-31T13:03:13;27.90;46.00
37560;DHT22;23398;50.928;7.084;2023-08-31T13:05:39;27.90;45.60
37560;DHT22;23398;50.928;7.084;2023-08-31T13:08:06;27.90;46.00
37560;DHT22;23398;50.928;7.084;2023-08-31T13:10:32;27.80;45.50
37560;DHT22;23398;50.928;7.084;2023-08-31T13:12:58;27.70;45.10
37560;DHT22;23398;50.928;7.084;2023-08-31T13:15:23;27.70;45.60
37560;DHT22;23398;50.928;7.084;2023-08-31T13:17:49;27.60;46.10
37560;DHT22;23398;50.928;7.084;2023-08-31T13:20:14;27.50;45.90
37560;DHT22;23398;50.928;7.084;2023-08-31T13:22:40;27.50;46.00
37560;DHT22;23398;50.928;7.084;2023-08-31T13:25:06;27.50;45.60
37560;DHT22;23398;50.928;7.084;2023-08-31T13:27:32;27.50;45.70
37560;DHT22;23398;50.928;7.084;2023-08-31T13:29:59;27.50;45.40
37560;DHT22;23398;50.928;7.084;2023-08-31T13:32:25;27.60;45.80
37560;DHT22;23398;50.928;7.084;2023-08-31T13:34:51;27.60;45.40
37560;DHT22;23398;50.928;7.084;2023-08-31T13:37:18;27.60;45.40
37560;DHT22;23398;50.928;7.084;2023-08-31T13:39:44;27.60;45.80
37560;DHT22;23398;50.928;7.084;2023-08-31T13:42:09;27.50;45.80
37560;DHT22;23398;50.928;7.084;2023-08-31T13:44:35;27.50;46.20
37560;DHT22;23398;50.928;7.084;2023-08-31T13:47:01;27.50;46.30
37560;DHT22;23398;50.928;7.084;2023-08-31T13:49:29;27.50;46.30
37560;DHT22;23398;50.928;7.084;2023-08-31T13:51:54;27.40;46.40
37560;DHT22;23398;50.928;7.084;2023-08-31T13:54:20;27.30;46.80
37560;DHT22;23398;50.928;7.084;2023-08-31T13:56:46;27.30;47.00
37560;DHT22;23398;50.928;7.084;2023-08-31T13:59:11;27.20;47.00
37560;DHT22;23398;50.928;7.084;2023-08-31T14:01:37;27.20;46.50
37560;DHT22;23398;50.928;7.084;2023-08-31T14:04:03;27.00;46.70
37560;DHT22;23398;50.928;7.084;2023-08-31T14:06:29;26.90;46.50
37560;DHT22;23398;50.928;7.084;2023-08-31T14:08:55;26.80;46.40
37560;DHT22;23398;50.928;7.084;2023-08-31T14:11:20;26.70;46.90
37560;DHT22;23398;50.928;7.084;2023-08-31T14:13:46;26.60;46.90
37560;DHT22;23398;50.928;7.084;2023-08-31T14:16:12;26.50;47.20
37560;DHT22;23398;50.928;7.084;2023-08-31T14:18:38;26.50;47.40
37560;DHT22;23398;50.928;7.084;2023-08-31T14:21:03;26.50;47.50
37560;DHT22;23398;50.928;7.084;2023-08-31T14:23:29;26.50;48.10
37560;DHT22;23398;50.928;7.084;2023-08-31T14:26:01;26.50;48.20
37560;DHT22;23398;50.928;7.084;2023-08-31T14:28:26;26.60;48.10
37560;DHT22;23398;50.928;7.084;2023-08-31T14:30:52;26.60;48.40
37560;DHT22;23398;50.928;7.084;2023-08-31T14:33:18;26.70;48.40
37560;DHT22;23398;50.928;7.084;2023-08-31T14:35:43;26.60;48.10
37560;DHT22;23398;50.928;7.084;2023-08-31T14:38:10;26.70;48.00
37560;DHT22;23398;50.928;7.084;2023-08-31T14:40:38;26.70;48.00
37560;DHT22;23398;50.928;7.084;2023-08-31T14:43:06;26.60;48.40
37560;DHT22;23398;50.928;7.084;2023-08-31T14:45:32;26.60;48.10
37560;DHT22;23398;50.928;7.084;2023-08-31T14:47:57;26.60;48.10
37560;DHT22;23398;50.928;7.084;2023-08-31T14:50:23;26.50;47.70
37560;DHT22;23398;50.928;7.084;2023-08-31T14:52:49;26.50;47.70
37560;DHT22;23398;50.928;7.084;2023-08-31T14:55:15;26.50;47.30
37560;DHT22;23398;50.928;7.084;2023-08-31T14:57:40;26.40;47.20
37560;DHT22;23398;50.928;7.084;2023-08-31T15:00:08;26.40;47.00
37560;DHT22;23398;50.928;7.084;2023-08-31T15:02:34;26.30;47.40
37560;DHT22;23398;50.928;7.084;2023-08-31T15:05:00;26.20;47.50
37560;DHT22;23398;50.928;7.084;2023-08-31T15:07:25;26.20;47.80
37560;DHT22;23398;50.928;7.084;2023-08-31T15:09:52;26.10;47.90
37560;DHT22;23398;50.928;7.084;2023-08-31T15:12:18;26.10;47.80
37560;DHT22;23398;50.928;7.084;2023-08-31T15:14:43;26.10;48.20
37560;DHT22;23398;50.928;7.084;2023-08-31T15:17:09;26.10;48.30
37560;DHT22;23398;50.928;7.084;2023-08-31T15:19:34;26.10;48.30
37560;DHT22;23398;50.928;7.084;2023-08-31T15:22:00;26.10;48.20
37560;DHT22;23398;50.928;7.084;2023-08-31T15:24:25;26.20;48.10
37560;DHT22;23398;50.928;7.084;2023-08-31T15:26:51;26.20;47.30
37560;DHT22;23398;50.928;7.084;2023-08-31T15:29:17;26.30;47.00
37560;DHT22;23398;50.928;7.084;2023-08-31T15:31:43;26.30;46.80
37560;DHT22;23398;50.928;7.084;2023-08-31T15:34:12;26.30;46.80
37560;DHT22;23398;50.928;7.084;2023-08-31T15:36:38;26.30;46.90
37560;DHT22;23398;50.928;7.084;2023-08-31T15:39:04;26.30;47.00
37560;DHT22;23398;50.928;7.084;2023-08-31T15:41:29;26.30;47.80
37560;DHT22;23398;50.928;7.084;2023-08-31T15:44:02;26.30;47.00
37560;DHT22;23398;50.928;7.084;2023-08-31T15:46:29;26.20;47.00
37560;DHT22;23398;50.928;7.084;2023-08-31T15:48:54;26.20;47.10
37560;DHT22;23398;50.928;7.084;2023-08-31T15:51:20;26.20;47.00